createdAt,value
2019-05-25T00:01:21.572Z,99.90
2019-05-25T00:03:52.725Z,99.90
2019-05-25T00:06:21.240Z,99.90
2019-05-25T00:08:49.712Z,99.90
2019-05-25T00:11:18.093Z,99.90
2019-05-25T00:13:46.517Z,99.90
2019-05-25T00:16:15.000Z,99.90
2019-05-25T00:18:43.390Z,99.90
2019-05-25T00:21:14.210Z,99.90
2019-05-25T00:23:42.221Z,99.90
2019-05-25T00:26:10.689Z,99.90
2019-05-25T00:28:39.196Z,99.90
2019-05-25T00:31:10.030Z,99.90
2019-05-25T00:33:38.931Z,99.90
2019-05-25T00:36:07.289Z,99.90
2019-05-25T00:38:35.754Z,99.90
2019-05-25T00:41:06.423Z,99.90
2019-05-25T00:43:34.869Z,99.90
2019-05-25T00:46:03.346Z,99.90
2019-05-25T00:48:32.524Z,99.90
2019-05-25T00:51:01.821Z,99.90
2019-05-25T00:53:30.393Z,99.90
2019-05-25T00:56:00.682Z,99.90
2019-05-25T00:58:29.162Z,99.90
2019-05-25T01:00:57.863Z,99.90
2019-05-25T01:03:26.314Z,99.90
2019-05-25T01:05:54.776Z,99.90
2019-05-25T01:08:26.315Z,99.90
2019-05-25T01:10:56.180Z,99.90
2019-05-25T01:13:24.747Z,99.90
2019-05-25T01:15:53.210Z,99.90
2019-05-25T01:18:21.593Z,99.90
2019-05-25T01:20:50.079Z,99.90
2019-05-25T01:23:18.859Z,99.90
2019-05-25T01:25:47.370Z,99.90
2019-05-25T01:28:16.094Z,99.90
2019-05-25T01:30:44.515Z,99.90
2019-05-25T01:33:12.987Z,99.90
2019-05-25T01:35:41.380Z,99.90
2019-05-25T01:38:11.562Z,99.90
2019-05-25T01:40:40.080Z,99.90
2019-05-25T01:43:08.622Z,99.90
2019-05-25T01:45:37.039Z,99.90
2019-05-25T01:48:05.404Z,99.90
2019-05-25T01:50:33.769Z,99.90
2019-05-25T01:53:04.026Z,99.90
2019-05-25T01:55:32.490Z,99.90
2019-05-25T01:58:01.040Z,99.90
2019-05-25T02:00:29.433Z,99.90
2019-05-25T02:02:59.397Z,99.90
2019-05-25T02:05:27.865Z,99.90
2019-05-25T02:07:56.359Z,99.90
2019-05-25T02:10:24.831Z,99.90
2019-05-25T02:12:53.355Z,99.90
2019-05-25T02:15:23.539Z,99.90
2019-05-25T02:17:51.918Z,99.90
2019-05-25T02:20:20.418Z,99.90
2019-05-25T02:22:48.802Z,99.90
2019-05-25T02:25:18.986Z,99.90
2019-05-25T02:27:47.680Z,99.90
2019-05-25T02:30:16.894Z,99.90
2019-05-25T02:32:46.947Z,99.90
2019-05-25T02:35:26.880Z,99.90
2019-05-25T02:37:56.422Z,99.90
2019-05-25T02:40:24.907Z,99.90
2019-05-25T02:42:53.696Z,99.90
2019-05-25T02:45:22.086Z,99.90
2019-05-25T02:47:50.769Z,99.90
2019-05-25T02:50:19.849Z,99.90
2019-05-25T02:52:48.374Z,99.90
2019-05-25T02:55:32.990Z,99.90
2019-05-25T02:57:49.984Z,99.90
2019-05-25T03:00:31.244Z,99.90
2019-05-25T03:03:00.357Z,99.90
2019-05-25T03:05:29.142Z,99.90
2019-05-25T03:07:58.150Z,99.90
2019-05-25T03:10:28.856Z,99.90
2019-05-25T03:12:59.227Z,99.90
2019-05-25T03:15:27.713Z,99.90
2019-05-25T03:17:56.492Z,99.90
2019-05-25T03:20:24.990Z,99.90
2019-05-25T03:22:53.389Z,99.90
2019-05-25T03:25:21.780Z,99.90
2019-05-25T03:27:50.168Z,99.90
2019-05-25T03:30:30.428Z,99.90
2019-05-25T03:32:59.003Z,99.90
2019-05-25T03:35:27.402Z,99.90
2019-05-25T03:37:55.819Z,99.90
2019-05-25T03:40:24.328Z,99.90
2019-05-25T03:42:52.947Z,99.90
2019-05-25T03:45:21.428Z,99.90
2019-05-25T03:47:49.959Z,99.90
2019-05-25T03:50:18.701Z,99.90
2019-05-25T03:52:47.197Z,99.90
2019-05-25T03:55:15.773Z,99.90
2019-05-25T03:57:44.644Z,99.90
2019-05-25T04:00:13.655Z,99.90
2019-05-25T04:02:42.325Z,99.90
2019-05-25T04:05:10.976Z,99.90
2019-05-25T04:07:39.462Z,99.90
2019-05-25T04:10:08.098Z,99.90
2019-05-25T04:12:36.570Z,99.90
2019-05-25T04:15:05.469Z,99.90
2019-05-25T04:17:34.183Z,99.90
2019-05-25T04:20:02.674Z,99.90
2019-05-25T04:22:32.721Z,99.90
2019-05-25T04:25:01.230Z,99.90
2019-05-25T04:27:29.700Z,99.90
2019-05-25T04:29:58.189Z,99.90
2019-05-25T04:32:26.787Z,99.90
2019-05-25T04:34:55.711Z,99.90
2019-05-25T04:37:24.383Z,99.90
2019-05-25T04:39:53.065Z,99.90
2019-05-25T04:42:22.184Z,99.90
2019-05-25T04:44:51.069Z,99.90
2019-05-25T04:47:27.019Z,99.90
2019-05-25T04:49:51.762Z,99.90
2019-05-25T04:52:20.490Z,99.90
2019-05-25T04:54:49.087Z,99.90
2019-05-25T04:57:17.559Z,99.90
2019-05-25T04:59:46.553Z,99.90
2019-05-25T05:02:15.383Z,99.90
2019-05-25T05:04:44.366Z,99.90
2019-05-25T05:07:12.970Z,99.90
2019-05-25T05:09:41.564Z,99.90
2019-05-25T05:12:09.949Z,99.90
2019-05-25T05:14:38.453Z,99.90
2019-05-25T05:17:06.936Z,99.90
2019-05-25T05:19:35.408Z,99.90
2019-05-25T05:22:05.866Z,99.90
2019-05-25T05:24:36.188Z,99.90
2019-05-25T05:27:04.699Z,99.90
2019-05-25T05:29:33.080Z,99.90
2019-05-25T05:32:02.507Z,99.90
2019-05-25T05:34:30.992Z,99.90
2019-05-25T05:37:00.790Z,99.90
2019-05-25T05:39:30.167Z,99.90
2019-05-25T05:42:00.098Z,99.90
2019-05-25T05:44:30.948Z,99.90
2019-05-25T05:47:01.324Z,99.90
2019-05-25T05:49:30.320Z,99.90
2019-05-25T05:52:02.170Z,99.90
2019-05-25T05:54:32.160Z,99.90
2019-05-25T05:57:11.902Z,99.90
2019-05-25T05:59:31.851Z,99.90
2019-05-25T06:02:00.628Z,99.90
2019-05-25T06:04:29.328Z,99.90
2019-05-25T06:06:58.597Z,99.90
2019-05-25T06:09:27.368Z,99.90
2019-05-25T06:11:55.975Z,99.90
2019-05-25T06:14:24.977Z,99.90
2019-05-25T06:16:53.733Z,99.90
2019-05-25T06:19:22.388Z,99.90
2019-05-25T06:21:51.254Z,99.90
2019-05-25T06:24:20.144Z,99.90
2019-05-25T06:26:49.685Z,99.90
2019-05-25T06:29:18.080Z,99.90
2019-05-25T06:31:46.615Z,99.90
2019-05-25T06:34:15.750Z,99.90
2019-05-25T06:36:44.507Z,99.90
2019-05-25T06:39:13.250Z,99.90
2019-05-25T06:41:41.837Z,99.90
2019-05-25T06:44:11.810Z,99.90
2019-05-25T06:46:40.637Z,99.90
2019-05-25T06:49:09.976Z,99.90
2019-05-25T06:51:38.767Z,99.90
2019-05-25T06:54:07.964Z,99.90
2019-05-25T06:56:36.492Z,99.90
2019-05-25T06:59:05.374Z,99.90
2019-05-25T07:01:40.373Z,99.90
2019-05-25T07:04:10.093Z,99.90
2019-05-25T07:06:38.748Z,99.90
2019-05-25T07:09:07.732Z,99.90
2019-05-25T07:11:36.358Z,99.90
2019-05-25T07:14:05.914Z,99.90
2019-05-25T07:16:34.521Z,99.90
2019-05-25T07:19:04.635Z,99.90
2019-05-25T07:21:33.332Z,99.90
2019-05-25T07:24:02.613Z,99.90
2019-05-25T07:26:31.245Z,99.90
2019-05-25T07:28:59.957Z,99.90
2019-05-25T07:31:32.673Z,99.90
2019-05-25T07:34:01.217Z,99.90
2019-05-25T07:36:29.635Z,99.90
2019-05-25T07:38:58.235Z,99.90
2019-05-25T07:41:26.667Z,99.90
2019-05-25T07:43:55.327Z,99.90
2019-05-25T07:46:23.717Z,99.90
2019-05-25T07:48:52.340Z,99.90
2019-05-25T07:51:20.944Z,99.90
2019-05-25T07:53:49.447Z,99.90
2019-05-25T07:56:18.052Z,99.90
2019-05-25T07:58:46.554Z,99.90
2019-05-25T08:01:15.146Z,99.90
2019-05-25T08:03:43.588Z,99.90
2019-05-25T08:06:12.044Z,99.90
2019-05-25T08:08:40.572Z,99.90
2019-05-25T08:11:09.264Z,99.90
2019-05-25T08:13:38.104Z,99.90
2019-05-25T08:16:06.640Z,99.90
2019-05-25T08:18:35.232Z,99.90
2019-05-25T08:21:03.830Z,99.90
2019-05-25T08:23:32.524Z,99.90
2019-05-25T08:26:01.183Z,99.90
2019-05-25T08:28:33.042Z,99.90
2019-05-25T08:31:01.721Z,99.90
2019-05-25T08:33:30.373Z,99.90
2019-05-25T08:35:59.017Z,99.90
2019-05-25T08:38:27.415Z,99.90
2019-05-25T08:40:55.926Z,99.90
2019-05-25T08:43:24.486Z,99.90
2019-05-25T08:45:53.034Z,99.90
2019-05-25T08:48:21.644Z,99.90
2019-05-25T08:50:50.362Z,99.90
2019-05-25T08:53:23.182Z,99.90
2019-05-25T08:55:49.191Z,99.90
2019-05-25T08:58:17.801Z,99.90
2019-05-25T09:00:46.348Z,99.90
2019-05-25T09:03:14.975Z,99.90
2019-05-25T09:05:43.716Z,99.90
2019-05-25T09:08:12.120Z,99.90
2019-05-25T09:10:40.743Z,99.90
2019-05-25T09:13:10.928Z,99.90
2019-05-25T09:15:39.452Z,99.90
2019-05-25T09:18:07.848Z,99.90
2019-05-25T09:20:36.396Z,99.90
2019-05-25T09:23:05.328Z,99.90
2019-05-25T09:25:33.991Z,99.90
2019-05-25T09:28:02.422Z,99.90
2019-05-25T09:30:30.939Z,99.90
2019-05-25T09:32:59.452Z,99.90
2019-05-25T09:35:27.949Z,99.90
2019-05-25T09:37:56.450Z,99.90
2019-05-25T09:40:25.462Z,99.90
2019-05-25T09:42:54.046Z,99.90
2019-05-25T09:45:22.650Z,99.90
2019-05-25T09:47:51.208Z,99.90
2019-05-25T09:50:19.957Z,99.90
2019-05-25T09:52:48.872Z,99.90
2019-05-25T09:55:17.655Z,99.90
2019-05-25T09:57:46.279Z,99.90
2019-05-25T10:00:15.803Z,99.90
2019-05-25T10:02:44.667Z,99.90
2019-05-25T10:05:15.249Z,99.90
2019-05-25T10:07:43.752Z,99.90
2019-05-25T10:10:12.540Z,99.90
2019-05-25T10:12:41.165Z,99.90
2019-05-25T10:15:10.369Z,99.90
2019-05-25T10:17:38.922Z,99.90
2019-05-25T10:20:07.406Z,99.90
2019-05-25T10:22:36.021Z,99.90
2019-05-25T10:25:05.453Z,99.40
2019-05-25T10:27:34.412Z,99.90
2019-05-25T10:30:03.711Z,99.90
2019-05-25T10:32:33.957Z,99.90
2019-05-25T10:35:02.869Z,99.80
2019-05-25T10:37:31.388Z,99.90
2019-05-25T10:40:00.003Z,99.90
2019-05-25T10:42:29.209Z,99.90
2019-05-25T10:44:57.989Z,99.90
2019-05-25T10:47:26.383Z,99.90
2019-05-25T10:49:55.094Z,99.90
2019-05-25T10:52:23.609Z,99.40
2019-05-25T10:54:52.382Z,98.80
2019-05-25T10:57:21.018Z,98.70
2019-05-25T10:59:52.978Z,99.20
2019-05-25T11:02:20.429Z,99.90
2019-05-25T11:04:48.957Z,98.90
2019-05-25T11:07:18.229Z,97.90
2019-05-25T11:09:46.647Z,99.60
2019-05-25T11:12:15.373Z,99.90
2019-05-25T11:14:43.969Z,99.90
2019-05-25T11:17:12.652Z,99.60
2019-05-25T11:19:41.240Z,99.20
2019-05-25T11:22:09.892Z,98.80
2019-05-25T11:24:38.415Z,99.90
2019-05-25T11:27:07.150Z,99.60
2019-05-25T11:29:35.592Z,99.90
2019-05-25T11:32:05.777Z,98.80
2019-05-25T11:34:34.939Z,98.50
2019-05-25T11:37:03.304Z,98.40
2019-05-25T11:39:31.678Z,98.10
2019-05-25T11:42:00.152Z,98.90
2019-05-25T11:44:29.272Z,98.90
2019-05-25T11:46:57.871Z,98.50
2019-05-25T11:49:26.248Z,98.30
2019-05-25T11:51:54.622Z,99.30
2019-05-25T11:54:23.150Z,98.60
2019-05-25T11:56:51.527Z,98.50
2019-05-25T11:59:20.126Z,98.50
2019-05-25T12:01:53.701Z,97.80
2019-05-25T12:04:22.362Z,97.70
2019-05-25T12:06:51.184Z,98.90
2019-05-25T12:09:19.569Z,99.10
2019-05-25T12:11:49.073Z,98.50
2019-05-25T12:14:17.577Z,98.60
2019-05-25T12:16:46.098Z,99.50
2019-05-25T12:19:15.157Z,97.40
2019-05-25T12:21:45.076Z,98.70
2019-05-25T12:24:13.618Z,95.80
2019-05-25T12:26:42.214Z,94.60
2019-05-25T12:29:11.101Z,94.40
2019-05-25T12:31:41.685Z,95.20
2019-05-25T12:34:10.702Z,95.50
2019-05-25T12:36:39.674Z,96.00
2019-05-25T12:39:08.282Z,93.50
2019-05-25T12:41:36.845Z,95.00
2019-05-25T12:44:05.290Z,92.90
2019-05-25T12:46:34.013Z,93.30
2019-05-25T12:49:02.445Z,95.30
2019-05-25T12:51:31.295Z,90.80
2019-05-25T12:54:00.029Z,91.10
2019-05-25T12:56:28.413Z,92.10
2019-05-25T12:58:57.397Z,87.60
2019-05-25T13:01:25.909Z,86.30
2019-05-25T13:03:55.518Z,88.10
2019-05-25T13:06:23.944Z,88.90
2019-05-25T13:08:52.841Z,91.40
2019-05-25T13:11:21.290Z,92.20
2019-05-25T13:13:49.965Z,91.70
2019-05-25T13:16:18.441Z,89.00
2019-05-25T13:18:46.909Z,88.50
2019-05-25T13:21:15.637Z,82.40
2019-05-25T13:23:44.407Z,85.00
2019-05-25T13:26:14.398Z,86.70
2019-05-25T13:28:43.125Z,85.30
2019-05-25T13:31:12.375Z,84.70
2019-05-25T13:33:41.055Z,82.20
2019-05-25T13:36:09.858Z,80.20
2019-05-25T13:38:38.788Z,80.80
2019-05-25T13:41:07.366Z,78.30
2019-05-25T13:43:36.339Z,79.40
2019-05-25T13:46:04.835Z,81.00
2019-05-25T13:48:33.765Z,82.80
2019-05-25T13:51:02.265Z,78.50
2019-05-25T13:53:33.010Z,76.90
2019-05-25T13:56:01.408Z,73.70
2019-05-25T13:58:29.804Z,75.60
2019-05-25T14:00:58.173Z,77.90
2019-05-25T14:03:26.582Z,79.40
2019-05-25T14:05:55.050Z,77.00
2019-05-25T14:08:24.043Z,83.00
2019-05-25T14:10:53.110Z,84.20
2019-05-25T14:13:21.950Z,81.70
2019-05-25T14:16:05.776Z,82.70
2019-05-25T14:18:21.563Z,83.80
2019-05-25T14:20:50.043Z,82.80
2019-05-25T14:23:18.767Z,83.00
2019-05-25T14:25:47.297Z,83.60
2019-05-25T14:28:15.764Z,79.60
2019-05-25T14:30:44.481Z,81.40
2019-05-25T14:33:14.370Z,80.10
2019-05-25T14:35:42.973Z,81.10
2019-05-25T14:38:11.745Z,79.90
2019-05-25T14:40:40.287Z,79.20
2019-05-25T14:43:09.296Z,78.50
2019-05-25T14:45:37.764Z,77.80
2019-05-25T14:48:06.151Z,79.00
2019-05-25T14:50:35.056Z,78.90
2019-05-25T14:53:03.520Z,80.10
2019-05-25T14:55:31.892Z,81.90
2019-05-25T14:58:02.487Z,81.50
2019-05-25T15:00:31.388Z,82.00
2019-05-25T15:03:00.136Z,81.50
2019-05-25T15:05:28.802Z,80.50
2019-05-25T15:07:57.620Z,81.60
2019-05-25T15:10:26.219Z,82.20
2019-05-25T15:12:54.695Z,82.30
2019-05-25T15:15:23.732Z,81.90
2019-05-25T15:17:52.100Z,81.40
2019-05-25T15:20:20.598Z,83.20
2019-05-25T15:22:49.614Z,85.10
2019-05-25T15:25:18.468Z,86.10
2019-05-25T15:27:46.864Z,88.00
2019-05-25T15:30:15.747Z,89.70
2019-05-25T15:32:44.148Z,91.20
2019-05-25T15:35:13.169Z,91.30
2019-05-25T15:37:41.807Z,91.60
2019-05-25T15:40:11.084Z,91.70
2019-05-25T15:42:39.864Z,91.80
2019-05-25T15:45:09.601Z,92.50
2019-05-25T15:47:38.335Z,92.40
2019-05-25T15:50:08.317Z,92.90
2019-05-25T15:52:36.695Z,93.50
2019-05-25T15:55:08.090Z,94.20
2019-05-25T15:57:36.983Z,94.70
2019-05-25T16:00:07.617Z,95.00
2019-05-25T16:02:37.223Z,95.50
2019-05-25T16:05:08.318Z,95.90
2019-05-25T16:07:42.514Z,96.20
2019-05-25T16:10:11.013Z,96.50
2019-05-25T16:12:39.670Z,98.00
2019-05-25T16:15:10.934Z,99.90
2019-05-25T16:17:39.518Z,99.90
2019-05-25T16:20:08.397Z,99.90
2019-05-25T16:22:36.797Z,99.90
2019-05-25T16:25:05.851Z,99.90
2019-05-25T16:27:34.754Z,99.90
2019-05-25T16:30:04.065Z,99.90
2019-05-25T16:32:34.255Z,99.90
2019-05-25T16:35:02.661Z,99.90
2019-05-25T16:37:31.103Z,99.90
2019-05-25T16:40:00.103Z,99.90
2019-05-25T16:42:28.600Z,99.90
2019-05-25T16:44:57.169Z,99.90
2019-05-25T16:47:25.552Z,99.90
2019-05-25T16:49:53.939Z,99.90
2019-05-25T16:52:22.425Z,99.90
2019-05-25T16:54:51.046Z,99.90
2019-05-25T16:57:19.579Z,99.90
2019-05-25T16:59:48.453Z,99.90
2019-05-25T17:02:17.146Z,99.90
2019-05-25T17:04:45.716Z,99.90
2019-05-25T17:07:15.228Z,99.90
2019-05-25T17:09:43.603Z,99.90
2019-05-25T17:12:12.095Z,99.90
2019-05-25T17:14:40.486Z,99.90
2019-05-25T17:17:09.039Z,99.90
2019-05-25T17:19:37.423Z,99.90
2019-05-25T17:22:05.791Z,99.90
2019-05-25T17:24:34.419Z,99.90
2019-05-25T17:27:02.824Z,99.90
2019-05-25T17:29:31.328Z,99.90
2019-05-25T17:32:05.483Z,99.90
2019-05-25T17:34:33.906Z,99.90
2019-05-25T17:37:02.250Z,99.90
2019-05-25T17:39:31.016Z,99.90
2019-05-25T17:42:01.184Z,99.90
2019-05-25T17:44:30.199Z,99.90
2019-05-25T17:46:59.675Z,99.90
2019-05-25T17:49:28.476Z,99.90
2019-05-25T17:51:58.918Z,99.90
2019-05-25T17:54:27.585Z,99.90
2019-05-25T17:56:56.085Z,99.90
2019-05-25T17:59:24.965Z,99.90
2019-05-25T18:01:54.046Z,99.90
2019-05-25T18:04:25.774Z,99.90
2019-05-25T18:06:54.530Z,99.90
2019-05-25T18:09:22.912Z,99.90
2019-05-25T18:11:51.291Z,99.90
2019-05-25T18:14:19.712Z,99.90
2019-05-25T18:16:48.088Z,99.90
2019-05-25T18:19:16.569Z,99.90
2019-05-25T18:21:47.013Z,99.90
2019-05-25T18:24:15.896Z,99.90
2019-05-25T18:26:44.528Z,99.90
2019-05-25T18:29:13.027Z,99.90
2019-05-25T18:31:41.521Z,99.90
2019-05-25T18:34:21.733Z,99.90
2019-05-25T18:36:40.277Z,99.90
2019-05-25T18:39:08.779Z,99.90
2019-05-25T18:41:37.167Z,99.90
2019-05-25T18:44:05.633Z,99.90
2019-05-25T18:46:34.147Z,99.90
2019-05-25T18:49:02.622Z,99.90
2019-05-25T18:51:31.111Z,99.90
2019-05-25T18:53:59.595Z,99.90
2019-05-25T18:56:28.098Z,99.90
2019-05-25T18:58:56.578Z,99.90
2019-05-25T19:01:25.079Z,99.90
2019-05-25T19:03:53.646Z,99.90
2019-05-25T19:06:22.120Z,99.90
2019-05-25T19:08:50.514Z,99.90
2019-05-25T19:11:18.894Z,99.90
2019-05-25T19:13:47.384Z,99.90
2019-05-25T19:16:16.118Z,99.90
2019-05-25T19:18:44.619Z,99.90
2019-05-25T19:21:13.192Z,99.90
2019-05-25T19:23:41.867Z,99.90
2019-05-25T19:26:10.548Z,99.90
2019-05-25T19:28:39.278Z,99.90
2019-05-25T19:31:07.954Z,99.90
2019-05-25T19:33:36.587Z,99.90
2019-05-25T19:36:05.283Z,99.90
2019-05-25T19:38:33.688Z,99.90
2019-05-25T19:41:02.177Z,99.90
2019-05-25T19:43:30.809Z,99.90
2019-05-25T19:45:59.806Z,99.90
2019-05-25T19:48:28.317Z,99.90
2019-05-25T19:50:56.876Z,99.90
2019-05-25T19:53:26.548Z,99.90
2019-05-25T19:55:56.933Z,99.90
2019-05-25T19:58:25.400Z,99.90
2019-05-25T20:00:54.219Z,99.90
2019-05-25T20:03:23.192Z,99.90
2019-05-25T20:05:51.720Z,99.90
2019-05-25T20:08:20.484Z,99.90
2019-05-25T20:10:49.003Z,99.90
2019-05-25T20:13:17.911Z,99.90
2019-05-25T20:15:46.385Z,99.90
2019-05-25T20:18:15.250Z,99.90
2019-05-25T20:20:43.763Z,99.90
2019-05-25T20:23:12.307Z,99.90
2019-05-25T20:25:40.866Z,99.90
2019-05-25T20:28:09.366Z,99.90
2019-05-25T20:30:37.942Z,99.90
2019-05-25T20:33:06.431Z,99.90
2019-05-25T20:35:35.839Z,99.90
2019-05-25T20:38:04.432Z,99.90
2019-05-25T20:40:35.169Z,99.90
2019-05-25T20:43:03.817Z,99.90
2019-05-25T20:45:32.277Z,99.90
2019-05-25T20:48:00.662Z,99.90
2019-05-25T20:50:29.067Z,99.90
2019-05-25T20:52:57.654Z,99.90
2019-05-25T20:55:26.158Z,99.90
2019-05-25T20:57:54.630Z,99.90
2019-05-25T21:00:24.534Z,99.90
2019-05-25T21:03:05.401Z,99.90
2019-05-25T21:05:23.533Z,99.90
2019-05-25T21:07:52.107Z,99.90
2019-05-25T21:10:20.487Z,99.90
2019-05-25T21:12:50.651Z,99.90
2019-05-25T21:15:19.259Z,99.90
2019-05-25T21:17:47.691Z,99.90
2019-05-25T21:20:16.230Z,99.90
2019-05-25T21:22:44.692Z,99.90
2019-05-25T21:25:13.673Z,99.90
2019-05-25T21:27:42.650Z,99.90
2019-05-25T21:30:11.735Z,99.90
2019-05-25T21:32:40.220Z,99.90
2019-05-25T21:35:09.015Z,99.90
2019-05-25T21:37:37.480Z,99.90
2019-05-25T21:40:07.328Z,99.90
2019-05-25T21:42:35.853Z,99.90
2019-05-25T21:45:05.396Z,99.90
2019-05-25T21:47:33.756Z,99.90
2019-05-25T21:50:02.175Z,99.90
2019-05-25T21:52:30.958Z,99.90
2019-05-25T21:54:59.575Z,99.90
2019-05-25T21:57:28.829Z,99.90
2019-05-25T21:59:57.207Z,99.90
2019-05-25T22:02:25.668Z,99.90
2019-05-25T22:04:54.075Z,99.90
2019-05-25T22:07:22.447Z,99.90
2019-05-25T22:09:52.544Z,99.90
2019-05-25T22:12:20.907Z,99.90
2019-05-25T22:14:49.316Z,99.90
2019-05-25T22:17:17.791Z,99.90
2019-05-25T22:19:46.179Z,99.90
2019-05-25T22:22:14.635Z,99.90
2019-05-25T22:24:43.145Z,99.90
2019-05-25T22:27:11.534Z,99.90
2019-05-25T22:29:41.702Z,99.90
2019-05-25T22:32:14.983Z,99.90
2019-05-25T22:34:45.153Z,99.90
2019-05-25T22:37:14.047Z,99.90
2019-05-25T22:39:42.735Z,99.90
2019-05-25T22:42:11.096Z,99.90
2019-05-25T22:44:39.634Z,99.90
2019-05-25T22:47:09.671Z,99.90
2019-05-25T22:49:38.271Z,99.90
2019-05-25T22:52:06.738Z,99.90
2019-05-25T22:54:35.170Z,99.90
2019-05-25T22:57:05.147Z,99.90
2019-05-25T22:59:33.541Z,99.90
2019-05-25T23:02:03.940Z,99.90
2019-05-25T23:04:35.536Z,99.90
2019-05-25T23:07:04.046Z,99.90
2019-05-25T23:09:33.948Z,99.90
2019-05-25T23:12:02.520Z,99.90
2019-05-25T23:14:30.991Z,99.90
2019-05-25T23:16:59.368Z,99.90
2019-05-25T23:19:27.732Z,99.90
2019-05-25T23:21:56.903Z,99.90
2019-05-25T23:24:25.303Z,99.90
2019-05-25T23:26:53.693Z,99.90
2019-05-25T23:29:22.070Z,99.90
2019-05-25T23:31:50.453Z,99.90
2019-05-25T23:34:18.921Z,99.90
2019-05-25T23:36:47.539Z,99.90
2019-05-25T23:39:15.906Z,99.90
2019-05-25T23:41:44.272Z,99.90
2019-05-25T23:44:13.457Z,99.90
2019-05-25T23:46:42.037Z,99.90
2019-05-25T23:49:10.513Z,99.90
2019-05-25T23:51:39.890Z,99.90
2019-05-25T23:54:08.453Z,99.90
2019-05-25T23:56:36.820Z,99.90
2019-05-25T23:59:05.215Z,99.90
